sensor_id;sensor_type;location;lat;lon;timestamp;pressure;altitude;pressure_sealevel;temperature;humidity
76687;BME280;65615;47.378;19.344;2023-10-19T04:23:01;99457.28;;;7.81;100.00
76687;BME280;65615;47.378;19.344;2023-10-19T04:27:24;99457.28;;;7.81;100.00
76687;BME280;65615;47.378;19.344;2023-10-19T04:31:26;99447.31;;;7.17;100.00
76687;BME280;65615;47.378;19.344;2023-10-19T04:35:32;99442.09;;;7.25;100.00
76687;BME280;65615;47.378;19.344;2023-10-19T04:39:36;99441.16;;;7.08;100.00
76687;BME280;65615;47.378;19.344;2023-10-19T04:43:40;99437.41;;;7.11;100.00
76687;BME280;65615;47.378;19.344;2023-10-19T04:47:42;99425.88;;;7.04;100.00
76687;BME280;65615;47.378;19.344;2023-10-19T04:51:46;99421.25;;;6.98;100.00
76687;BME280;65615;47.378;19.344;2023-10-19T04:55:49;99420.00;;;7.10;100.00
76687;BME280;65615;47.378;19.344;2023-10-19T04:59:53;99421.50;;;7.12;100.00
76687;BME280;65615;47.378;19.344;2023-10-19T05:03:56;99418.03;;;7.12;100.00
76687;BME280;65615;47.378;19.344;2023-10-19T05:07:59;99418.09;;;7.20;100.00
76687;BME280;65615;47.378;19.344;2023-10-19T05:12:02;99413.81;;;7.19;100.00
76687;BME280;65615;47.378;19.344;2023-10-19T05:16:05;99416.50;;;7.27;100.00
76687;BME280;65615;47.378;19.344;2023-10-19T05:20:09;99412.28;;;7.08;100.00
76687;BME280;65615;47.378;19.344;2023-10-19T05:24:12;99406.13;;;7.17;100.00
76687;BME280;65615;47.378;19.344;2023-10-19T05:28:16;99393.94;;;7.16;100.00
76687;BME280;65615;47.378;19.344;2023-10-19T05:32:19;99399.41;;;7.23;100.00
76687;BME280;65615;47.378;19.344;2023-10-19T05:36:22;99398.44;;;7.32;100.00
76687;BME280;65615;47.378;19.344;2023-10-19T05:40:25;99398.28;;;7.25;100.00
76687;BME280;65615;47.378;19.344;2023-10-19T05:44:33;99397.50;;;7.41;100.00
76687;BME280;65615;47.378;19.344;2023-10-19T05:48:37;99398.84;;;7.45;100.00
76687;BME280;65615;47.378;19.344;2023-10-19T05:52:43;99404.78;;;7.55;100.00
76687;BME280;65615;47.378;19.344;2023-10-19T05:56:46;99406.13;;;7.59;100.00
76687;BME280;65615;47.378;19.344;2023-10-19T06:00:49;99409.72;;;7.58;100.00
76687;BME280;65615;47.378;19.344;2023-10-19T06:04:55;99400.28;;;7.81;100.00
76687;BME280;65615;47.378;19.344;2023-10-19T06:08:59;99403.19;;;7.70;100.00
76687;BME280;65615;47.378;19.344;2023-10-19T06:13:05;99405.69;;;7.71;100.00
76687;BME280;65615;47.378;19.344;2023-10-19T06:17:12;99404.50;;;7.74;100.00
76687;BME280;65615;47.378;19.344;2023-10-19T06:21:22;99401.72;;;7.75;100.00
76687;BME280;65615;47.378;19.344;2023-10-19T06:25:26;99396.66;;;7.82;100.00
76687;BME280;65615;47.378;19.344;2023-10-19T06:29:29;99400.94;;;7.83;100.00
76687;BME280;65615;47.378;19.344;2023-10-19T06:33:32;99395.03;;;7.89;100.00
76687;BME280;65615;47.378;19.344;2023-10-19T06:37:39;99385.50;;;8.04;100.00
76687;BME280;65615;47.378;19.344;2023-10-19T06:41:43;99383.53;;;8.06;100.00
76687;BME280;65615;47.378;19.344;2023-10-19T06:45:46;99392.75;;;8.10;100.00
76687;BME280;65615;47.378;19.344;2023-10-19T06:49:49;99385.34;;;8.14;100.00
76687;BME280;65615;47.378;19.344;2023-10-19T06:53:53;99370.09;;;8.09;100.00
76687;BME280;65615;47.378;19.344;2023-10-19T06:57:56;99370.88;;;8.02;100.00
76687;BME280;65615;47.378;19.344;2023-10-19T07:01:59;99369.09;;;8.10;100.00
76687;BME280;65615;47.378;19.344;2023-10-19T07:06:04;99367.50;;;8.25;100.00
76687;BME280;65615;47.378;19.344;2023-10-19T07:10:14;99365.19;;;8.30;100.00
76687;BME280;65615;47.378;19.344;2023-10-19T07:14:17;99362.06;;;8.35;100.00
76687;BME280;65615;47.378;19.344;2023-10-19T07:18:20;99364.84;;;8.17;100.00
76687;BME280;65615;47.378;19.344;2023-10-19T07:22:23;99366.84;;;8.31;100.00
76687;BME280;65615;47.378;19.344;2023-10-19T07:26:27;99362.88;;;8.35;100.00
76687;BME280;65615;47.378;19.344;2023-10-19T07:30:34;99351.38;;;8.28;100.00
76687;BME280;65615;47.378;19.344;2023-10-19T07:34:37;99357.62;;;8.35;100.00
76687;BME280;65615;47.378;19.344;2023-10-19T07:38:40;99351.72;;;8.41;100.00
76687;BME280;65615;47.378;19.344;2023-10-19T07:42:45;99350.41;;;8.37;100.00
76687;BME280;65615;47.378;19.344;2023-10-19T07:46:49;99340.16;;;8.67;100.00
76687;BME280;65615;47.378;19.344;2023-10-19T07:50:52;99332.91;;;8.61;100.00
76687;BME280;65615;47.378;19.344;2023-10-19T07:54:58;99337.81;;;8.80;100.00
76687;BME280;65615;47.378;19.344;2023-10-19T07:59:00;99331.72;;;8.87;100.00
76687;BME280;65615;47.378;19.344;2023-10-19T08:03:04;99331.19;;;9.00;100.00
76687;BME280;65615;47.378;19.344;2023-10-19T08:07:08;99308.94;;;9.41;100.00
76687;BME280;65615;47.378;19.344;2023-10-19T08:11:13;99308.88;;;9.49;100.00
76687;BME280;65615;47.378;19.344;2023-10-19T08:15:16;99293.84;;;9.58;100.00
76687;BME280;65615;47.378;19.344;2023-10-19T08:19:19;99300.16;;;9.49;100.00
76687;BME280;65615;47.378;19.344;2023-10-19T08:23:23;99292.66;;;9.60;100.00
76687;BME280;65615;47.378;19.344;2023-10-19T08:27:32;99279.66;;;9.81;100.00
76687;BME280;65615;47.378;19.344;2023-10-19T08:31:47;99267.63;;;10.01;100.00
76687;BME280;65615;47.378;19.344;2023-10-19T08:35:50;99270.16;;;9.95;100.00
76687;BME280;65615;47.378;19.344;2023-10-19T08:39:53;99264.88;;;9.95;100.00
76687;BME280;65615;47.378;19.344;2023-10-19T08:43:56;99256.97;;;10.17;100.00
76687;BME280;65615;47.378;19.344;2023-10-19T08:48:00;99257.72;;;10.03;100.00
76687;BME280;65615;47.378;19.344;2023-10-19T08:52:07;99257.31;;;10.14;100.00
76687;BME280;65615;47.378;19.344;2023-10-19T08:56:10;99252.53;;;10.33;100.00
76687;BME280;65615;47.378;19.344;2023-10-19T09:00:20;99256.91;;;10.55;100.00
76687;BME280;65615;47.378;19.344;2023-10-19T09:04:28;99249.72;;;10.63;100.00
76687;BME280;65615;47.378;19.344;2023-10-19T09:08:31;99254.56;;;10.60;100.00
76687;BME280;65615;47.378;19.344;2023-10-19T09:12:58;99248.59;;;11.01;100.00
76687;BME280;65615;47.378;19.344;2023-10-19T09:17:01;99249.47;;;11.23;100.00
76687;BME280;65615;47.378;19.344;2023-10-19T09:21:11;99244.34;;;11.57;100.00
76687;BME280;65615;47.378;19.344;2023-10-19T09:25:26;99239.81;;;11.66;100.00
76687;BME280;65615;47.378;19.344;2023-10-19T09:29:30;99242.22;;;12.37;100.00
76687;BME280;65615;47.378;19.344;2023-10-19T09:33:34;99230.63;;;12.72;100.00
76687;BME280;65615;47.378;19.344;2023-10-19T09:37:37;99224.03;;;13.70;100.00
76687;BME280;65615;47.378;19.344;2023-10-19T09:41:40;99211.75;;;14.27;100.00
76687;BME280;65615;47.378;19.344;2023-10-19T09:45:46;99203.16;;;14.58;100.00
76687;BME280;65615;47.378;19.344;2023-10-19T09:49:53;99205.75;;;15.28;100.00
76687;BME280;65615;47.378;19.344;2023-10-19T09:54:14;99207.13;;;16.00;100.00
76687;BME280;65615;47.378;19.344;2023-10-19T09:58:22;99204.12;;;16.39;100.00
76687;BME280;65615;47.378;19.344;2023-10-19T10:02:26;99184.44;;;16.76;100.00
76687;BME280;65615;47.378;19.344;2023-10-19T10:06:56;99177.16;;;17.01;100.00
76687;BME280;65615;47.378;19.344;2023-10-19T10:10:56;99166.53;;;17.43;100.00
76687;BME280;65615;47.378;19.344;2023-10-19T10:15:04;99155.63;;;17.15;100.00
76687;BME280;65615;47.378;19.344;2023-10-19T10:19:11;99152.25;;;16.89;100.00
76687;BME280;65615;47.378;19.344;2023-10-19T10:23:24;99154.69;;;16.61;100.00
76687;BME280;65615;47.378;19.344;2023-10-19T10:27:51;99142.00;;;15.96;100.00
76687;BME280;65615;47.378;19.344;2023-10-19T10:31:54;99137.13;;;15.93;100.00
76687;BME280;65615;47.378;19.344;2023-10-19T10:35:58;99116.31;;;16.01;100.00
76687;BME280;65615;47.378;19.344;2023-10-19T10:40:02;99107.84;;;16.11;100.00
76687;BME280;65615;47.378;19.344;2023-10-19T10:44:06;99108.38;;;17.03;100.00
76687;BME280;65615;47.378;19.344;2023-10-19T10:48:17;99105.22;;;19.48;100.00
76687;BME280;65615;47.378;19.344;2023-10-19T10:52:30;99097.34;;;20.46;100.00
76687;BME280;65615;47.378;19.344;2023-10-19T10:56:39;99095.16;;;21.71;100.00
76687;BME280;65615;47.378;19.344;2023-10-19T11:00:43;99090.69;;;22.29;73.00
76687;BME280;65615;47.378;19.344;2023-10-19T11:04:47;99083.94;;;22.83;68.55
76687;BME280;65615;47.378;19.344;2023-10-19T11:08:51;99068.03;;;22.15;70.43
76687;BME280;65615;47.378;19.344;2023-10-19T11:13:02;99063.63;;;22.55;71.71
76687;BME280;65615;47.378;19.344;2023-10-19T11:17:12;99043.84;;;21.41;74.23
76687;BME280;65615;47.378;19.344;2023-10-19T11:21:18;99043.16;;;21.92;73.97
76687;BME280;65615;47.378;19.344;2023-10-19T11:25:24;99044.03;;;22.60;70.43
76687;BME280;65615;47.378;19.344;2023-10-19T11:29:27;99036.25;;;22.58;70.66
76687;BME280;65615;47.378;19.344;2023-10-19T11:33:30;99031.16;;;22.72;70.11
76687;BME280;65615;47.378;19.344;2023-10-19T11:37:50;99029.78;;;22.08;71.30
76687;BME280;65615;47.378;19.344;2023-10-19T11:41:53;99012.94;;;21.80;73.97
76687;BME280;65615;47.378;19.344;2023-10-19T11:45:56;99009.53;;;22.52;70.97
76687;BME280;65615;47.378;19.344;2023-10-19T11:49:59;98997.94;;;22.51;70.54
76687;BME280;65615;47.378;19.344;2023-10-19T11:54:07;99000.28;;;22.28;71.92
76687;BME280;65615;47.378;19.344;2023-10-19T11:58:09;98995.53;;;21.51;75.34
76687;BME280;65615;47.378;19.344;2023-10-19T12:02:16;98996.09;;;20.63;79.29
76687;BME280;65615;47.378;19.344;2023-10-19T12:06:22;98990.44;;;20.16;83.29
76687;BME280;65615;47.378;19.344;2023-10-19T12:10:26;98997.59;;;19.51;88.22
76687;BME280;65615;47.378;19.344;2023-10-19T12:14:38;98984.59;;;19.26;91.45
76687;BME280;65615;47.378;19.344;2023-10-19T12:18:42;98974.53;;;18.84;98.19
76687;BME280;65615;47.378;19.344;2023-10-19T12:22:45;98967.97;;;18.35;100.00
76687;BME280;65615;47.378;19.344;2023-10-19T12:26:50;98958.09;;;18.07;100.00
76687;BME280;65615;47.378;19.344;2023-10-19T12:30:54;98946.81;;;18.05;100.00
76687;BME280;65615;47.378;19.344;2023-10-19T12:35:03;98953.12;;;18.27;100.00
76687;BME280;65615;47.378;19.344;2023-10-19T12:39:07;98947.84;;;18.04;100.00
76687;BME280;65615;47.378;19.344;2023-10-19T12:43:14;98943.25;;;17.88;100.00
76687;BME280;65615;47.378;19.344;2023-10-19T12:47:17;98937.69;;;17.78;100.00
76687;BME280;65615;47.378;19.344;2023-10-19T12:51:20;98934.00;;;17.56;100.00
76687;BME280;65615;47.378;19.344;2023-10-19T12:55:26;98929.00;;;17.48;100.00
76687;BME280;65615;47.378;19.344;2023-10-19T12:59:30;98927.19;;;17.25;100.00
76687;BME280;65615;47.378;19.344;2023-10-19T13:03:33;98917.19;;;17.21;100.00
76687;BME280;65615;47.378;19.344;2023-10-19T13:07:39;98911.50;;;17.29;100.00
76687;BME280;65615;47.378;19.344;2023-10-19T13:11:42;98904.41;;;17.34;100.00
76687;BME280;65615;47.378;19.344;2023-10-19T13:15:46;98888.53;;;17.51;100.00
76687;BME280;65615;47.378;19.344;2023-10-19T13:19:51;98889.56;;;17.61;100.00
76687;BME280;65615;47.378;19.344;2023-10-19T13:23:57;98870.22;;;17.82;100.00
76687;BME280;65615;47.378;19.344;2023-10-19T13:28:00;98871.75;;;18.07;100.00
76687;BME280;65615;47.378;19.344;2023-10-19T13:32:03;98873.53;;;18.01;100.00
76687;BME280;65615;47.378;19.344;2023-10-19T13:36:07;98873.72;;;18.11;100.00
76687;BME280;65615;47.378;19.344;2023-10-19T13:40:10;98864.94;;;17.99;100.00
76687;BME280;65615;47.378;19.344;2023-10-19T13:44:20;98864.72;;;17.89;100.00
76687;BME280;65615;47.378;19.344;2023-10-19T13:48:24;98855.84;;;17.72;100.00
76687;BME280;65615;47.378;19.344;2023-10-19T13:52:27;98862.44;;;17.81;100.00
76687;BME280;65615;47.378;19.344;2023-10-19T13:56:30;98850.19;;;17.57;100.00
76687;BME280;65615;47.378;19.344;2023-10-19T14:00:34;98843.88;;;16.65;100.00
76687;BME280;65615;47.378;19.344;2023-10-19T14:04:37;98844.06;;;16.52;100.00
76687;BME280;65615;47.378;19.344;2023-10-19T14:08:40;98844.94;;;16.23;100.00
76687;BME280;65615;47.378;19.344;2023-10-19T14:12:43;98839.78;;;16.10;100.00
76687;BME280;65615;47.378;19.344;2023-10-19T14:16:46;98835.56;;;16.32;100.00
76687;BME280;65615;47.378;19.344;2023-10-19T14:20:57;98833.88;;;16.08;100.00
76687;BME280;65615;47.378;19.344;2023-10-19T14:25:11;98834.34;;;16.05;100.00
76687;BME280;65615;47.378;19.344;2023-10-19T14:29:27;98839.84;;;15.92;100.00
76687;BME280;65615;47.378;19.344;2023-10-19T14:33:30;98833.25;;;15.65;100.00
76687;BME280;65615;47.378;19.344;2023-10-19T14:37:33;98821.84;;;15.58;100.00
76687;BME280;65615;47.378;19.344;2023-10-19T14:41:36;98822.75;;;15.52;100.00
76687;BME280;65615;47.378;19.344;2023-10-19T14:45:42;98815.78;;;15.32;100.00
76687;BME280;65615;47.378;19.344;2023-10-19T14:49:45;98816.38;;;15.34;100.00
